sensor_id;sensor_type;location;lat;lon;timestamp;P1;durP1;ratioP1;P2;durP2;ratioP2
11123;SDS011;5616;42.692;23.312;2022-11-12T00:01:35;27.00;;;19.53;;
11123;SDS011;5616;42.692;23.312;2022-11-12T00:04:20;30.03;;;18.53;;
11123;SDS011;5616;42.692;23.312;2022-11-12T00:07:06;24.93;;;18.77;;
11123;SDS011;5616;42.692;23.312;2022-11-12T00:09:51;25.57;;;18.20;;
11123;SDS011;5616;42.692;23.312;2022-11-12T00:12:37;27.27;;;18.33;;
11123;SDS011;5616;42.692;23.312;2022-11-12T00:15:22;26.03;;;18.00;;
11123;SDS011;5616;42.692;23.312;2022-11-12T00:18:09;23.77;;;17.07;;
11123;SDS011;5616;42.692;23.312;2022-11-12T00:20:55;26.17;;;18.47;;
11123;SDS011;5616;42.692;23.312;2022-11-12T00:23:40;22.73;;;17.20;;
11123;SDS011;5616;42.692;23.312;2022-11-12T00:26:25;24.07;;;18.07;;
11123;SDS011;5616;42.692;23.312;2022-11-12T00:29:11;27.50;;;18.60;;
11123;SDS011;5616;42.692;23.312;2022-11-12T00:31:56;24.10;;;17.47;;
11123;SDS011;5616;42.692;23.312;2022-11-12T00:34:43;25.67;;;17.77;;
11123;SDS011;5616;42.692;23.312;2022-11-12T00:37:28;27.20;;;18.63;;
11123;SDS011;5616;42.692;23.312;2022-11-12T00:40:14;26.13;;;18.03;;
11123;SDS011;5616;42.692;23.312;2022-11-12T00:43:00;25.33;;;17.73;;
11123;SDS011;5616;42.692;23.312;2022-11-12T00:45:45;24.80;;;17.10;;
11123;SDS011;5616;42.692;23.312;2022-11-12T00:48:30;26.23;;;17.40;;
11123;SDS011;5616;42.692;23.312;2022-11-12T00:51:17;25.63;;;18.40;;
11123;SDS011;5616;42.692;23.312;2022-11-12T00:54:02;23.77;;;16.73;;
11123;SDS011;5616;42.692;23.312;2022-11-12T00:56:48;27.40;;;17.87;;
11123;SDS011;5616;42.692;23.312;2022-11-12T00:59:33;23.50;;;17.13;;
11123;SDS011;5616;42.692;23.312;2022-11-12T01:02:19;23.63;;;17.33;;
11123;SDS011;5616;42.692;23.312;2022-11-12T01:05:05;24.43;;;17.50;;
11123;SDS011;5616;42.692;23.312;2022-11-12T01:07:52;25.43;;;17.10;;
11123;SDS011;5616;42.692;23.312;2022-11-12T01:10:37;25.33;;;17.87;;
11123;SDS011;5616;42.692;23.312;2022-11-12T01:13:23;23.00;;;17.73;;
11123;SDS011;5616;42.692;23.312;2022-11-12T01:16:09;27.00;;;18.07;;
11123;SDS011;5616;42.692;23.312;2022-11-12T01:18:58;25.97;;;16.70;;
11123;SDS011;5616;42.692;23.312;2022-11-12T01:21:44;23.27;;;17.57;;
11123;SDS011;5616;42.692;23.312;2022-11-12T01:24:30;23.90;;;16.43;;
11123;SDS011;5616;42.692;23.312;2022-11-12T01:27:16;22.00;;;16.13;;
11123;SDS011;5616;42.692;23.312;2022-11-12T01:30:01;23.67;;;16.63;;
11123;SDS011;5616;42.692;23.312;2022-11-12T01:32:46;24.87;;;16.97;;
11123;SDS011;5616;42.692;23.312;2022-11-12T01:35:32;23.10;;;16.73;;
11123;SDS011;5616;42.692;23.312;2022-11-12T01:38:17;23.50;;;16.07;;
11123;SDS011;5616;42.692;23.312;2022-11-12T01:41:04;23.17;;;16.83;;
11123;SDS011;5616;42.692;23.312;2022-11-12T01:44:05;26.77;;;16.80;;
11123;SDS011;5616;42.692;23.312;2022-11-12T01:46:55;22.17;;;16.00;;
11123;SDS011;5616;42.692;23.312;2022-11-12T01:49:46;21.43;;;15.60;;
11123;SDS011;5616;42.692;23.312;2022-11-12T01:52:37;22.87;;;14.97;;
11123;SDS011;5616;42.692;23.312;2022-11-12T01:55:26;21.37;;;14.43;;
11123;SDS011;5616;42.692;23.312;2022-11-12T01:58:16;18.73;;;13.73;;
11123;SDS011;5616;42.692;23.312;2022-11-12T02:01:04;17.90;;;13.87;;
11123;SDS011;5616;42.692;23.312;2022-11-12T02:03:49;16.93;;;13.43;;
11123;SDS011;5616;42.692;23.312;2022-11-12T02:06:35;20.93;;;15.47;;
11123;SDS011;5616;42.692;23.312;2022-11-12T02:09:21;20.60;;;15.00;;
11123;SDS011;5616;42.692;23.312;2022-11-12T02:12:07;21.13;;;14.83;;
11123;SDS011;5616;42.692;23.312;2022-11-12T02:15:15;21.30;;;14.93;;
11123;SDS011;5616;42.692;23.312;2022-11-12T02:17:59;20.80;;;14.33;;
11123;SDS011;5616;42.692;23.312;2022-11-12T02:20:45;18.87;;;12.50;;
11123;SDS011;5616;42.692;23.312;2022-11-12T02:23:38;16.27;;;12.10;;
11123;SDS011;5616;42.692;23.312;2022-11-12T02:26:24;13.17;;;9.70;;
11123;SDS011;5616;42.692;23.312;2022-11-12T02:29:10;12.37;;;8.43;;
11123;SDS011;5616;42.692;23.312;2022-11-12T02:31:56;9.53;;;6.73;;
11123;SDS011;5616;42.692;23.312;2022-11-12T02:34:41;8.80;;;6.37;;
11123;SDS011;5616;42.692;23.312;2022-11-12T02:37:27;9.10;;;6.60;;
11123;SDS011;5616;42.692;23.312;2022-11-12T02:40:14;6.43;;;5.67;;
11123;SDS011;5616;42.692;23.312;2022-11-12T02:42:59;9.52;;;6.85;;
11123;SDS011;5616;42.692;23.312;2022-11-12T02:45:44;5.90;;;4.70;;
11123;SDS011;5616;42.692;23.312;2022-11-12T02:48:30;4.90;;;4.20;;
11123;SDS011;5616;42.692;23.312;2022-11-12T02:51:15;5.27;;;4.50;;
11123;SDS011;5616;42.692;23.312;2022-11-12T02:54:01;6.27;;;3.97;;
11123;SDS011;5616;42.692;23.312;2022-11-12T02:56:47;5.70;;;4.30;;
11123;SDS011;5616;42.692;23.312;2022-11-12T02:59:33;7.93;;;4.17;;
11123;SDS011;5616;42.692;23.312;2022-11-12T03:02:18;6.00;;;4.37;;
11123;SDS011;5616;42.692;23.312;2022-11-12T03:05:03;6.57;;;4.77;;
11123;SDS011;5616;42.692;23.312;2022-11-12T03:07:49;5.97;;;4.73;;
11123;SDS011;5616;42.692;23.312;2022-11-12T03:10:35;6.20;;;4.30;;
11123;SDS011;5616;42.692;23.312;2022-11-12T03:13:23;5.43;;;4.40;;
11123;SDS011;5616;42.692;23.312;2022-11-12T03:16:08;5.87;;;4.67;;
11123;SDS011;5616;42.692;23.312;2022-11-12T03:18:54;6.13;;;4.50;;
11123;SDS011;5616;42.692;23.312;2022-11-12T03:21:39;7.00;;;4.77;;
11123;SDS011;5616;42.692;23.312;2022-11-12T03:24:25;6.43;;;4.67;;
11123;SDS011;5616;42.692;23.312;2022-11-12T03:27:10;5.43;;;4.50;;
11123;SDS011;5616;42.692;23.312;2022-11-12T03:29:57;4.30;;;3.90;;
11123;SDS011;5616;42.692;23.312;2022-11-12T03:32:43;5.83;;;4.80;;
11123;SDS011;5616;42.692;23.312;2022-11-12T03:35:28;6.17;;;5.00;;
11123;SDS011;5616;42.692;23.312;2022-11-12T03:38:14;6.27;;;4.70;;
11123;SDS011;5616;42.692;23.312;2022-11-12T03:40:59;4.83;;;4.33;;
11123;SDS011;5616;42.692;23.312;2022-11-12T03:43:45;4.70;;;4.20;;
11123;SDS011;5616;42.692;23.312;2022-11-12T03:46:32;4.20;;;3.80;;
11123;SDS011;5616;42.692;23.312;2022-11-12T03:49:17;4.70;;;3.90;;
11123;SDS011;5616;42.692;23.312;2022-11-12T03:52:02;4.70;;;3.80;;
11123;SDS011;5616;42.692;23.312;2022-11-12T03:54:47;4.13;;;3.67;;
11123;SDS011;5616;42.692;23.312;2022-11-12T03:57:33;4.37;;;3.97;;
11123;SDS011;5616;42.692;23.312;2022-11-12T04:00:19;4.63;;;3.80;;
11123;SDS011;5616;42.692;23.312;2022-11-12T04:03:07;4.80;;;3.90;;
11123;SDS011;5616;42.692;23.312;2022-11-12T04:05:52;4.57;;;4.00;;
11123;SDS011;5616;42.692;23.312;2022-11-12T04:08:55;7.47;;;3.80;;
11123;SDS011;5616;42.692;23.312;2022-11-12T04:11:40;5.77;;;3.67;;
11123;SDS011;5616;42.692;23.312;2022-11-12T04:14:26;4.67;;;4.10;;
11123;SDS011;5616;42.692;23.312;2022-11-12T04:17:10;4.77;;;4.17;;
11123;SDS011;5616;42.692;23.312;2022-11-12T04:20:15;5.23;;;4.50;;
11123;SDS011;5616;42.692;23.312;2022-11-12T04:23:19;4.17;;;3.77;;
11123;SDS011;5616;42.692;23.312;2022-11-12T04:26:04;4.73;;;4.03;;
11123;SDS011;5616;42.692;23.312;2022-11-12T04:29:06;5.17;;;4.40;;
11123;SDS011;5616;42.692;23.312;2022-11-12T04:32:10;4.43;;;4.03;;
11123;SDS011;5616;42.692;23.312;2022-11-12T04:34:55;4.50;;;4.10;;
11123;SDS011;5616;42.692;23.312;2022-11-12T04:37:42;5.20;;;4.60;;
11123;SDS011;5616;42.692;23.312;2022-11-12T04:40:27;5.93;;;4.87;;
11123;SDS011;5616;42.692;23.312;2022-11-12T04:43:31;4.67;;;4.17;;
11123;SDS011;5616;42.692;23.312;2022-11-12T04:46:33;5.43;;;4.43;;
11123;SDS011;5616;42.692;23.312;2022-11-12T04:49:19;5.20;;;4.70;;
11123;SDS011;5616;42.692;23.312;2022-11-12T04:52:04;5.57;;;4.70;;
11123;SDS011;5616;42.692;23.312;2022-11-12T04:54:51;5.23;;;4.73;;
11123;SDS011;5616;42.692;23.312;2022-11-12T04:57:37;6.63;;;4.70;;
11123;SDS011;5616;42.692;23.312;2022-11-12T05:00:23;5.47;;;4.30;;
11123;SDS011;5616;42.692;23.312;2022-11-12T05:03:08;4.67;;;4.10;;
11123;SDS011;5616;42.692;23.312;2022-11-12T05:05:59;6.20;;;4.67;;
11123;SDS011;5616;42.692;23.312;2022-11-12T05:08:44;7.80;;;4.50;;
11123;SDS011;5616;42.692;23.312;2022-11-12T05:11:31;5.33;;;4.80;;
11123;SDS011;5616;42.692;23.312;2022-11-12T05:14:16;6.13;;;4.67;;
11123;SDS011;5616;42.692;23.312;2022-11-12T05:17:03;5.63;;;4.57;;
11123;SDS011;5616;42.692;23.312;2022-11-12T05:19:49;7.43;;;4.90;;
11123;SDS011;5616;42.692;23.312;2022-11-12T05:22:34;5.63;;;5.13;;
11123;SDS011;5616;42.692;23.312;2022-11-12T05:25:19;9.57;;;5.50;;
11123;SDS011;5616;42.692;23.312;2022-11-12T05:28:06;6.10;;;4.90;;
11123;SDS011;5616;42.692;23.312;2022-11-12T05:30:51;5.87;;;5.27;;
11123;SDS011;5616;42.692;23.312;2022-11-12T05:33:37;8.03;;;5.63;;
11123;SDS011;5616;42.692;23.312;2022-11-12T05:36:22;5.40;;;4.70;;
11123;SDS011;5616;42.692;23.312;2022-11-12T05:39:07;6.37;;;5.73;;
11123;SDS011;5616;42.692;23.312;2022-11-12T05:41:53;8.63;;;6.10;;
11123;SDS011;5616;42.692;23.312;2022-11-12T05:44:39;8.40;;;5.83;;
11123;SDS011;5616;42.692;23.312;2022-11-12T05:47:25;6.87;;;5.70;;
11123;SDS011;5616;42.692;23.312;2022-11-12T05:50:11;6.70;;;5.70;;
11123;SDS011;5616;42.692;23.312;2022-11-12T05:52:56;7.77;;;5.87;;
11123;SDS011;5616;42.692;23.312;2022-11-12T05:55:41;7.57;;;5.47;;
11123;SDS011;5616;42.692;23.312;2022-11-12T05:58:27;7.10;;;5.90;;
11123;SDS011;5616;42.692;23.312;2022-11-12T06:01:13;7.23;;;6.33;;
11123;SDS011;5616;42.692;23.312;2022-11-12T06:03:58;6.63;;;5.73;;
11123;SDS011;5616;42.692;23.312;2022-11-12T06:06:44;7.50;;;5.70;;
11123;SDS011;5616;42.692;23.312;2022-11-12T06:09:29;7.97;;;5.90;;
11123;SDS011;5616;42.692;23.312;2022-11-12T06:12:15;7.53;;;6.00;;
11123;SDS011;5616;42.692;23.312;2022-11-12T06:15:00;6.00;;;5.40;;
11123;SDS011;5616;42.692;23.312;2022-11-12T06:17:47;8.60;;;6.67;;
11123;SDS011;5616;42.692;23.312;2022-11-12T06:20:32;15.60;;;10.10;;
11123;SDS011;5616;42.692;23.312;2022-11-12T06:23:18;15.80;;;10.47;;
11123;SDS011;5616;42.692;23.312;2022-11-12T06:26:04;15.37;;;8.87;;
11123;SDS011;5616;42.692;23.312;2022-11-12T06:28:49;9.57;;;7.23;;
11123;SDS011;5616;42.692;23.312;2022-11-12T06:31:34;11.97;;;7.67;;
11123;SDS011;5616;42.692;23.312;2022-11-12T06:34:21;9.80;;;7.53;;
11123;SDS011;5616;42.692;23.312;2022-11-12T06:37:06;17.17;;;10.63;;
11123;SDS011;5616;42.692;23.312;2022-11-12T06:39:51;23.07;;;12.33;;
11123;SDS011;5616;42.692;23.312;2022-11-12T06:42:37;22.63;;;12.07;;
11123;SDS011;5616;42.692;23.312;2022-11-12T06:45:22;20.33;;;12.30;;
11123;SDS011;5616;42.692;23.312;2022-11-12T06:48:07;11.40;;;8.17;;
11123;SDS011;5616;42.692;23.312;2022-11-12T06:50:54;13.33;;;9.27;;
11123;SDS011;5616;42.692;23.312;2022-11-12T06:53:40;10.70;;;8.00;;
11123;SDS011;5616;42.692;23.312;2022-11-12T06:56:25;9.67;;;7.63;;
11123;SDS011;5616;42.692;23.312;2022-11-12T06:59:10;11.87;;;8.83;;
11123;SDS011;5616;42.692;23.312;2022-11-12T07:01:56;12.13;;;8.70;;
11123;SDS011;5616;42.692;23.312;2022-11-12T07:04:41;13.90;;;9.07;;
11123;SDS011;5616;42.692;23.312;2022-11-12T07:07:28;8.57;;;7.53;;
11123;SDS011;5616;42.692;23.312;2022-11-12T07:10:14;8.43;;;7.03;;
11123;SDS011;5616;42.692;23.312;2022-11-12T07:12:59;9.10;;;7.30;;
11123;SDS011;5616;42.692;23.312;2022-11-12T07:15:45;8.27;;;6.77;;
11123;SDS011;5616;42.692;23.312;2022-11-12T07:18:31;9.97;;;7.40;;
11123;SDS011;5616;42.692;23.312;2022-11-12T07:21:17;8.63;;;6.53;;
11123;SDS011;5616;42.692;23.312;2022-11-12T07:24:05;9.37;;;7.27;;
11123;SDS011;5616;42.692;23.312;2022-11-12T07:26:51;9.70;;;7.40;;
11123;SDS011;5616;42.692;23.312;2022-11-12T07:29:36;9.60;;;6.80;;
11123;SDS011;5616;42.692;23.312;2022-11-12T07:32:22;10.13;;;7.20;;
11123;SDS011;5616;42.692;23.312;2022-11-12T07:35:07;14.13;;;8.97;;
11123;SDS011;5616;42.692;23.312;2022-11-12T07:37:53;11.57;;;7.90;;
11123;SDS011;5616;42.692;23.312;2022-11-12T07:40:40;8.43;;;7.13;;
11123;SDS011;5616;42.692;23.312;2022-11-12T07:43:25;10.73;;;7.20;;
11123;SDS011;5616;42.692;23.312;2022-11-12T07:46:11;8.53;;;6.83;;
11123;SDS011;5616;42.692;23.312;2022-11-12T07:48:57;7.40;;;6.63;;
11123;SDS011;5616;42.692;23.312;2022-11-12T07:51:42;8.03;;;6.03;;
11123;SDS011;5616;42.692;23.312;2022-11-12T07:54:28;8.60;;;6.43;;
11123;SDS011;5616;42.692;23.312;2022-11-12T07:57:14;12.03;;;7.90;;
11123;SDS011;5616;42.692;23.312;2022-11-12T07:59:59;13.97;;;8.73;;
11123;SDS011;5616;42.692;23.312;2022-11-12T08:02:46;24.23;;;13.13;;
11123;SDS011;5616;42.692;23.312;2022-11-12T08:05:32;32.23;;;14.73;;
11123;SDS011;5616;42.692;23.312;2022-11-12T08:08:18;10.20;;;7.60;;
11123;SDS011;5616;42.692;23.312;2022-11-12T08:11:03;8.00;;;6.10;;
11123;SDS011;5616;42.692;23.312;2022-11-12T08:13:50;8.50;;;6.20;;
11123;SDS011;5616;42.692;23.312;2022-11-12T08:16:35;9.77;;;6.50;;
11123;SDS011;5616;42.692;23.312;2022-11-12T08:19:21;12.00;;;7.23;;
11123;SDS011;5616;42.692;23.312;2022-11-12T08:22:06;13.30;;;8.97;;
11123;SDS011;5616;42.692;23.312;2022-11-12T08:24:51;15.27;;;10.33;;
11123;SDS011;5616;42.692;23.312;2022-11-12T08:27:37;20.97;;;11.63;;
11123;SDS011;5616;42.692;23.312;2022-11-12T08:30:24;11.57;;;8.07;;
11123;SDS011;5616;42.692;23.312;2022-11-12T08:33:09;13.97;;;7.87;;
11123;SDS011;5616;42.692;23.312;2022-11-12T08:35:54;8.20;;;6.33;;
11123;SDS011;5616;42.692;23.312;2022-11-12T08:38:40;7.57;;;6.07;;
11123;SDS011;5616;42.692;23.312;2022-11-12T08:41:26;7.20;;;5.27;;
11123;SDS011;5616;42.692;23.312;2022-11-12T08:44:11;7.63;;;5.87;;
11123;SDS011;5616;42.692;23.312;2022-11-12T08:46:58;7.63;;;6.83;;
11123;SDS011;5616;42.692;23.312;2022-11-12T08:49:43;7.23;;;5.93;;
11123;SDS011;5616;42.692;23.312;2022-11-12T08:52:29;7.40;;;4.77;;
11123;SDS011;5616;42.692;23.312;2022-11-12T08:55:14;5.93;;;4.93;;
11123;SDS011;5616;42.692;23.312;2022-11-12T08:57:59;6.50;;;5.27;;
11123;SDS011;5616;42.692;23.312;2022-11-12T09:00:45;6.63;;;4.80;;
11123;SDS011;5616;42.692;23.312;2022-11-12T09:03:32;9.03;;;5.03;;
11123;SDS011;5616;42.692;23.312;2022-11-12T09:06:17;5.53;;;4.23;;
11123;SDS011;5616;42.692;23.312;2022-11-12T09:09:03;5.77;;;4.07;;
11123;SDS011;5616;42.692;23.312;2022-11-12T09:11:48;4.43;;;3.93;;
11123;SDS011;5616;42.692;23.312;2022-11-12T09:14:33;5.17;;;4.37;;
11123;SDS011;5616;42.692;23.312;2022-11-12T09:17:19;4.07;;;3.67;;
11123;SDS011;5616;42.692;23.312;2022-11-12T09:20:06;4.67;;;3.77;;
11123;SDS011;5616;42.692;23.312;2022-11-12T09:22:52;10.10;;;5.10;;
11123;SDS011;5616;42.692;23.312;2022-11-12T09:25:37;5.43;;;3.97;;
11123;SDS011;5616;42.692;23.312;2022-11-12T09:28:23;7.27;;;4.57;;
11123;SDS011;5616;42.692;23.312;2022-11-12T09:31:09;7.43;;;4.47;;
11123;SDS011;5616;42.692;23.312;2022-11-12T09:33:54;6.77;;;3.67;;
11123;SDS011;5616;42.692;23.312;2022-11-12T09:36:41;5.23;;;2.80;;
11123;SDS011;5616;42.692;23.312;2022-11-12T09:39:26;4.37;;;3.20;;
11123;SDS011;5616;42.692;23.312;2022-11-12T09:42:13;10.57;;;6.10;;
11123;SDS011;5616;42.692;23.312;2022-11-12T09:45:02;6.87;;;3.70;;
11123;SDS011;5616;42.692;23.312;2022-11-12T09:47:51;5.80;;;3.80;;
11123;SDS011;5616;42.692;23.312;2022-11-12T09:50:42;11.47;;;5.10;;
11123;SDS011;5616;42.692;23.312;2022-11-12T09:53:38;19.70;;;8.00;;
11123;SDS011;5616;42.692;23.312;2022-11-12T09:56:29;10.50;;;6.20;;
11123;SDS011;5616;42.692;23.312;2022-11-12T09:59:15;15.80;;;7.97;;
11123;SDS011;5616;42.692;23.312;2022-11-12T10:02:04;11.27;;;5.50;;
11123;SDS011;5616;42.692;23.312;2022-11-12T10:05:16;8.73;;;4.30;;
11123;SDS011;5616;42.692;23.312;2022-11-12T10:08:19;8.33;;;5.00;;
11123;SDS011;5616;42.692;23.312;2022-11-12T10:11:22;8.03;;;4.03;;
11123;SDS011;5616;42.692;23.312;2022-11-12T10:14:47;7.50;;;4.63;;
11123;SDS011;5616;42.692;23.312;2022-11-12T10:18:07;3.10;;;2.80;;
11123;SDS011;5616;42.692;23.312;2022-11-12T10:20:58;3.90;;;3.07;;
11123;SDS011;5616;42.692;23.312;2022-11-12T10:23:50;3.83;;;2.63;;
11123;SDS011;5616;42.692;23.312;2022-11-12T10:26:38;3.37;;;2.90;;
11123;SDS011;5616;42.692;23.312;2022-11-12T10:29:26;3.43;;;2.50;;
11123;SDS011;5616;42.692;23.312;2022-11-12T10:32:15;5.83;;;3.20;;
11123;SDS011;5616;42.692;23.312;2022-11-12T10:35:00;3.93;;;3.13;;
11123;SDS011;5616;42.692;23.312;2022-11-12T10:37:46;8.10;;;4.33;;
11123;SDS011;5616;42.692;23.312;2022-11-12T10:40:35;4.90;;;4.17;;
11123;SDS011;5616;42.692;23.312;2022-11-12T10:43:24;6.63;;;4.10;;
11123;SDS011;5616;42.692;23.312;2022-11-12T10:46:13;6.63;;;4.20;;
11123;SDS011;5616;42.692;23.312;2022-11-12T10:49:03;4.07;;;3.67;;
11123;SDS011;5616;42.692;23.312;2022-11-12T10:51:53;4.27;;;3.83;;
11123;SDS011;5616;42.692;23.312;2022-11-12T10:54:39;4.90;;;3.80;;
11123;SDS011;5616;42.692;23.312;2022-11-12T10:57:25;5.53;;;4.50;;
11123;SDS011;5616;42.692;23.312;2022-11-12T11:00:17;8.23;;;4.37;;
11123;SDS011;5616;42.692;23.312;2022-11-12T11:03:05;4.30;;;3.67;;
11123;SDS011;5616;42.692;23.312;2022-11-12T11:06:00;4.20;;;3.47;;
11123;SDS011;5616;42.692;23.312;2022-11-12T11:08:47;6.73;;;3.93;;
11123;SDS011;5616;42.692;23.312;2022-11-12T11:11:33;4.43;;;3.40;;
11123;SDS011;5616;42.692;23.312;2022-11-12T11:14:29;4.67;;;3.13;;
11123;SDS011;5616;42.692;23.312;2022-11-12T11:17:17;9.63;;;3.80;;
11123;SDS011;5616;42.692;23.312;2022-11-12T11:20:03;4.73;;;3.00;;
11123;SDS011;5616;42.692;23.312;2022-11-12T11:22:50;4.73;;;3.20;;
11123;SDS011;5616;42.692;23.312;2022-11-12T11:25:40;3.27;;;2.73;;
11123;SDS011;5616;42.692;23.312;2022-11-12T11:28:28;4.30;;;3.13;;
11123;SDS011;5616;42.692;23.312;2022-11-12T11:31:18;2.87;;;2.67;;
11123;SDS011;5616;42.692;23.312;2022-11-12T11:34:20;4.87;;;3.00;;
11123;SDS011;5616;42.692;23.312;2022-11-12T11:37:21;3.80;;;3.20;;
11123;SDS011;5616;42.692;23.312;2022-11-12T11:40:12;3.60;;;2.73;;
11123;SDS011;5616;42.692;23.312;2022-11-12T11:43:12;3.57;;;3.23;;
11123;SDS011;5616;42.692;23.312;2022-11-12T11:46:18;3.57;;;2.90;;
11123;SDS011;5616;42.692;23.312;2022-11-12T11:52:47;4.10;;;3.23;;
11123;SDS011;5616;42.692;23.312;2022-11-12T11:55:42;3.30;;;2.83;;
11123;SDS011;5616;42.692;23.312;2022-11-12T12:01:51;3.47;;;2.73;;
11123;SDS011;5616;42.692;23.312;2022-11-12T12:04:53;3.27;;;2.80;;
11123;SDS011;5616;42.692;23.312;2022-11-12T12:07:45;3.93;;;3.23;;
11123;SDS011;5616;42.692;23.312;2022-11-12T12:10:42;4.13;;;3.03;;
11123;SDS011;5616;42.692;23.312;2022-11-12T12:13:38;4.00;;;3.60;;
11123;SDS011;5616;42.692;23.312;2022-11-12T12:16:43;4.57;;;3.33;;
11123;SDS011;5616;42.692;23.312;2022-11-12T12:19:40;4.57;;;3.40;;
11123;SDS011;5616;42.692;23.312;2022-11-12T12:22:36;4.23;;;3.73;;
11123;SDS011;5616;42.692;23.312;2022-11-12T12:25:27;4.30;;;3.60;;
11123;SDS011;5616;42.692;23.312;2022-11-12T12:28:16;4.43;;;3.67;;
11123;SDS011;5616;42.692;23.312;2022-11-12T12:31:11;4.43;;;3.40;;
11123;SDS011;5616;42.692;23.312;2022-11-12T12:34:01;4.67;;;3.83;;
11123;SDS011;5616;42.692;23.312;2022-11-12T12:36:51;5.33;;;4.00;;
11123;SDS011;5616;42.692;23.312;2022-11-12T12:39:42;5.47;;;3.77;;
11123;SDS011;5616;42.692;23.312;2022-11-12T12:42:36;5.40;;;3.90;;
11123;SDS011;5616;42.692;23.312;2022-11-12T12:45:33;4.63;;;3.80;;
11123;SDS011;5616;42.692;23.312;2022-11-12T12:48:24;5.07;;;4.20;;
11123;SDS011;5616;42.692;23.312;2022-11-12T12:51:12;5.17;;;4.17;;
11123;SDS011;5616;42.692;23.312;2022-11-12T12:53:58;6.53;;;4.17;;
11123;SDS011;5616;42.692;23.312;2022-11-12T12:56:45;5.17;;;4.10;;
11123;SDS011;5616;42.692;23.312;2022-11-12T12:59:32;5.43;;;3.83;;
11123;SDS011;5616;42.692;23.312;2022-11-12T13:02:18;5.27;;;3.63;;
11123;SDS011;5616;42.692;23.312;2022-11-12T13:05:05;4.93;;;3.23;;
11123;SDS011;5616;42.692;23.312;2022-11-12T13:08:08;5.27;;;3.43;;
11123;SDS011;5616;42.692;23.312;2022-11-12T13:10:55;3.97;;;3.30;;
11123;SDS011;5616;42.692;23.312;2022-11-12T13:13:42;4.63;;;3.80;;
11123;SDS011;5616;42.692;23.312;2022-11-12T13:19:44;4.23;;;3.53;;
11123;SDS011;5616;42.692;23.312;2022-11-12T13:22:49;4.77;;;3.70;;
11123;SDS011;5616;42.692;23.312;2022-11-12T13:25:35;4.60;;;3.70;;
11123;SDS011;5616;42.692;23.312;2022-11-12T13:28:21;5.20;;;4.10;;
11123;SDS011;5616;42.692;23.312;2022-11-12T13:31:22;4.93;;;3.73;;
11123;SDS011;5616;42.692;23.312;2022-11-12T13:34:18;3.80;;;3.40;;
11123;SDS011;5616;42.692;23.312;2022-11-12T13:37:11;5.37;;;4.07;;
11123;SDS011;5616;42.692;23.312;2022-11-12T13:40:03;4.17;;;3.77;;
11123;SDS011;5616;42.692;23.312;2022-11-12T13:42:55;5.43;;;3.80;;
11123;SDS011;5616;42.692;23.312;2022-11-12T13:45:44;4.40;;;4.00;;
11123;SDS011;5616;42.692;23.312;2022-11-12T13:48:32;5.73;;;4.33;;
11123;SDS011;5616;42.692;23.312;2022-11-12T13:51:26;4.47;;;3.97;;
11123;SDS011;5616;42.692;23.312;2022-11-12T13:54:25;5.17;;;4.07;;
11123;SDS011;5616;42.692;23.312;2022-11-12T13:57:14;6.17;;;4.87;;
11123;SDS011;5616;42.692;23.312;2022-11-12T14:00:18;5.10;;;4.50;;
11123;SDS011;5616;42.692;23.312;2022-11-12T14:03:05;6.30;;;4.23;;
11123;SDS011;5616;42.692;23.312;2022-11-12T14:05:51;5.43;;;4.20;;
11123;SDS011;5616;42.692;23.312;2022-11-12T14:08:44;6.33;;;4.10;;
11123;SDS011;5616;42.692;23.312;2022-11-12T14:11:47;6.37;;;3.63;;
11123;SDS011;5616;42.692;23.312;2022-11-12T14:14:46;3.43;;;3.10;;
11123;SDS011;5616;42.692;23.312;2022-11-12T14:17:46;3.33;;;3.00;;
11123;SDS011;5616;42.692;23.312;2022-11-12T14:20:41;5.60;;;3.80;;
11123;SDS011;5616;42.692;23.312;2022-11-12T14:23:27;3.53;;;3.10;;
11123;SDS011;5616;42.692;23.312;2022-11-12T14:29:18;4.50;;;2.90;;
11123;SDS011;5616;42.692;23.312;2022-11-12T14:32:07;4.23;;;3.10;;
11123;SDS011;5616;42.692;23.312;2022-11-12T14:34:52;3.37;;;2.83;;
11123;SDS011;5616;42.692;23.312;2022-11-12T14:37:38;3.10;;;2.77;;
11123;SDS011;5616;42.692;23.312;2022-11-12T14:40:26;3.63;;;2.93;;
11123;SDS011;5616;42.692;23.312;2022-11-12T14:46:22;3.47;;;3.17;;
11123;SDS011;5616;42.692;23.312;2022-11-12T14:49:12;4.80;;;3.10;;
11123;SDS011;5616;42.692;23.312;2022-11-12T14:52:03;3.30;;;3.00;;
11123;SDS011;5616;42.692;23.312;2022-11-12T14:54:53;4.88;;;3.70;;
11123;SDS011;5616;42.692;23.312;2022-11-12T14:57:41;4.13;;;3.53;;
11123;SDS011;5616;42.692;23.312;2022-11-12T15:00:42;4.32;;;3.40;;
11123;SDS011;5616;42.692;23.312;2022-11-12T15:03:30;4.30;;;3.90;;
11123;SDS011;5616;42.692;23.312;2022-11-12T15:06:18;4.40;;;3.93;;
11123;SDS011;5616;42.692;23.312;2022-11-12T15:09:05;4.17;;;3.70;;
11123;SDS011;5616;42.692;23.312;2022-11-12T15:11:50;3.97;;;3.47;;
11123;SDS011;5616;42.692;23.312;2022-11-12T15:14:36;4.43;;;4.03;;
11123;SDS011;5616;42.692;23.312;2022-11-12T15:17:25;5.10;;;4.20;;
11123;SDS011;5616;42.692;23.312;2022-11-12T15:20:15;6.03;;;4.03;;
11123;SDS011;5616;42.692;23.312;2022-11-12T15:23:02;6.50;;;4.03;;
11123;SDS011;5616;42.692;23.312;2022-11-12T15:25:56;5.00;;;4.23;;
11123;SDS011;5616;42.692;23.312;2022-11-12T15:28:45;4.00;;;3.57;;
11123;SDS011;5616;42.692;23.312;2022-11-12T15:31:43;4.23;;;3.77;;
11123;SDS011;5616;42.692;23.312;2022-11-12T15:34:33;5.60;;;3.83;;
11123;SDS011;5616;42.692;23.312;2022-11-12T15:37:29;6.63;;;3.70;;
11123;SDS011;5616;42.692;23.312;2022-11-12T15:40:19;4.73;;;3.80;;
11123;SDS011;5616;42.692;23.312;2022-11-12T15:43:09;4.77;;;3.70;;
11123;SDS011;5616;42.692;23.312;2022-11-12T15:45:58;5.87;;;4.17;;
11123;SDS011;5616;42.692;23.312;2022-11-12T15:48:43;6.77;;;4.20;;
11123;SDS011;5616;42.692;23.312;2022-11-12T15:51:30;7.07;;;5.10;;
11123;SDS011;5616;42.692;23.312;2022-11-12T15:54:15;10.07;;;7.50;;
11123;SDS011;5616;42.692;23.312;2022-11-12T15:57:01;18.40;;;11.43;;
11123;SDS011;5616;42.692;23.312;2022-11-12T15:59:47;17.20;;;11.63;;
11123;SDS011;5616;42.692;23.312;2022-11-12T16:02:38;26.23;;;16.30;;
11123;SDS011;5616;42.692;23.312;2022-11-12T16:05:23;14.57;;;9.43;;
11123;SDS011;5616;42.692;23.312;2022-11-12T16:08:11;18.00;;;11.17;;
11123;SDS011;5616;42.692;23.312;2022-11-12T16:10:56;17.27;;;10.47;;
11123;SDS011;5616;42.692;23.312;2022-11-12T16:13:43;7.33;;;5.20;;
11123;SDS011;5616;42.692;23.312;2022-11-12T16:16:29;5.57;;;3.87;;
11123;SDS011;5616;42.692;23.312;2022-11-12T16:19:15;7.87;;;4.50;;
11123;SDS011;5616;42.692;23.312;2022-11-12T16:22:01;5.23;;;4.50;;
11123;SDS011;5616;42.692;23.312;2022-11-12T16:24:56;6.00;;;4.63;;
11123;SDS011;5616;42.692;23.312;2022-11-12T16:27:41;8.55;;;5.90;;
11123;SDS011;5616;42.692;23.312;2022-11-12T16:30:27;11.23;;;8.40;;
11123;SDS011;5616;42.692;23.312;2022-11-12T16:33:14;11.30;;;8.63;;
11123;SDS011;5616;42.692;23.312;2022-11-12T16:36:00;14.00;;;11.20;;
11123;SDS011;5616;42.692;23.312;2022-11-12T16:38:45;11.67;;;9.73;;
11123;SDS011;5616;42.692;23.312;2022-11-12T16:41:32;12.07;;;9.03;;
11123;SDS011;5616;42.692;23.312;2022-11-12T16:44:17;11.47;;;8.10;;
11123;SDS011;5616;42.692;23.312;2022-11-12T16:47:02;10.93;;;8.50;;
11123;SDS011;5616;42.692;23.312;2022-11-12T16:49:49;9.10;;;7.40;;
11123;SDS011;5616;42.692;23.312;2022-11-12T16:52:34;11.07;;;7.23;;
11123;SDS011;5616;42.692;23.312;2022-11-12T16:55:20;12.00;;;7.50;;
11123;SDS011;5616;42.692;23.312;2022-11-12T16:58:09;11.17;;;7.50;;
11123;SDS011;5616;42.692;23.312;2022-11-12T17:00:56;9.33;;;7.10;;
11123;SDS011;5616;42.692;23.312;2022-11-12T17:03:42;8.80;;;6.43;;